sensor_id;sensor_type;location;lat;lon;timestamp;temperature;humidity
51841;DHT22;37888;53.246;6.658;2024-01-30T00:02:07;4.60;99.90
51841;DHT22;37888;53.246;6.658;2024-01-30T00:04:33;5.30;99.90
51841;DHT22;37888;53.246;6.658;2024-01-30T00:06:58;4.20;99.90
51841;DHT22;37888;53.246;6.658;2024-01-30T00:09:24;3.80;99.90
51841;DHT22;37888;53.246;6.658;2024-01-30T00:11:50;4.30;99.90
51841;DHT22;37888;53.246;6.658;2024-01-30T00:14:16;3.80;99.90
51841;DHT22;37888;53.246;6.658;2024-01-30T00:16:42;3.90;99.90
51841;DHT22;37888;53.246;6.658;2024-01-30T00:19:07;4.00;99.90
51841;DHT22;37888;53.246;6.658;2024-01-30T00:21:34;3.90;99.90
51841;DHT22;37888;53.246;6.658;2024-01-30T00:23:59;4.00;99.90
51841;DHT22;37888;53.246;6.658;2024-01-30T00:26:25;4.00;99.90
51841;DHT22;37888;53.246;6.658;2024-01-30T00:28:51;4.00;99.90
51841;DHT22;37888;53.246;6.658;2024-01-30T00:31:16;4.10;99.90
51841;DHT22;37888;53.246;6.658;2024-01-30T00:33:43;4.00;99.90
51841;DHT22;37888;53.246;6.658;2024-01-30T00:36:09;4.70;99.90
51841;DHT22;37888;53.246;6.658;2024-01-30T00:38:35;3.70;99.90
51841;DHT22;37888;53.246;6.658;2024-01-30T00:41:02;4.30;99.90
51841;DHT22;37888;53.246;6.658;2024-01-30T00:43:28;3.80;99.90
51841;DHT22;37888;53.246;6.658;2024-01-30T00:45:54;4.00;99.90
51841;DHT22;37888;53.246;6.658;2024-01-30T00:48:20;4.00;99.90
51841;DHT22;37888;53.246;6.658;2024-01-30T00:50:46;3.90;99.90
51841;DHT22;37888;53.246;6.658;2024-01-30T00:53:12;4.00;99.90
51841;DHT22;37888;53.246;6.658;2024-01-30T00:55:38;4.20;99.90
51841;DHT22;37888;53.246;6.658;2024-01-30T00:58:05;3.80;99.90
51841;DHT22;37888;53.246;6.658;2024-01-30T01:00:31;4.30;99.90
51841;DHT22;37888;53.246;6.658;2024-01-30T01:02:58;3.90;99.90
51841;DHT22;37888;53.246;6.658;2024-01-30T01:05:24;4.00;99.90
51841;DHT22;37888;53.246;6.658;2024-01-30T01:07:50;4.00;99.90
51841;DHT22;37888;53.246;6.658;2024-01-30T01:10:19;4.10;99.90
51841;DHT22;37888;53.246;6.658;2024-01-30T01:12:45;3.80;99.90
51841;DHT22;37888;53.246;6.658;2024-01-30T01:15:11;3.70;99.90
51841;DHT22;37888;53.246;6.658;2024-01-30T01:17:38;3.80;99.90
51841;DHT22;37888;53.246;6.658;2024-01-30T01:20:05;4.00;99.90
51841;DHT22;37888;53.246;6.658;2024-01-30T01:22:31;4.00;99.90
51841;DHT22;37888;53.246;6.658;2024-01-30T01:24:58;3.90;99.90
51841;DHT22;37888;53.246;6.658;2024-01-30T01:27:23;4.10;99.90
51841;DHT22;37888;53.246;6.658;2024-01-30T01:29:49;4.30;99.90
51841;DHT22;37888;53.246;6.658;2024-01-30T01:32:15;4.00;99.90
51841;DHT22;37888;53.246;6.658;2024-01-30T01:34:40;4.00;99.90
51841;DHT22;37888;53.246;6.658;2024-01-30T01:37:06;4.20;99.90
51841;DHT22;37888;53.246;6.658;2024-01-30T01:39:33;4.20;99.90
51841;DHT22;37888;53.246;6.658;2024-01-30T01:41:58;4.40;99.90
51841;DHT22;37888;53.246;6.658;2024-01-30T01:44:24;4.30;99.90
51841;DHT22;37888;53.246;6.658;2024-01-30T01:46:51;4.20;99.90
51841;DHT22;37888;53.246;6.658;2024-01-30T01:49:18;4.70;99.90
51841;DHT22;37888;53.246;6.658;2024-01-30T01:51:45;4.10;99.90
51841;DHT22;37888;53.246;6.658;2024-01-30T01:54:12;4.40;99.90
51841;DHT22;37888;53.246;6.658;2024-01-30T01:56:38;4.10;99.90
51841;DHT22;37888;53.246;6.658;2024-01-30T01:59:08;4.00;99.90
51841;DHT22;37888;53.246;6.658;2024-01-30T02:01:37;4.10;99.90
51841;DHT22;37888;53.246;6.658;2024-01-30T02:04:04;4.50;99.90
51841;DHT22;37888;53.246;6.658;2024-01-30T02:06:29;4.30;99.90
51841;DHT22;37888;53.246;6.658;2024-01-30T02:08:55;4.20;99.90
51841;DHT22;37888;53.246;6.658;2024-01-30T02:11:22;4.20;99.90
51841;DHT22;37888;53.246;6.658;2024-01-30T02:13:48;4.20;99.90
51841;DHT22;37888;53.246;6.658;2024-01-30T02:16:14;4.20;99.90
51841;DHT22;37888;53.246;6.658;2024-01-30T02:18:40;4.10;99.90
51841;DHT22;37888;53.246;6.658;2024-01-30T02:21:10;4.10;99.90
51841;DHT22;37888;53.246;6.658;2024-01-30T02:23:36;4.20;99.90
51841;DHT22;37888;53.246;6.658;2024-01-30T02:26:03;4.10;99.90
51841;DHT22;37888;53.246;6.658;2024-01-30T02:28:29;4.20;99.90
51841;DHT22;37888;53.246;6.658;2024-01-30T02:30:54;4.30;99.90
51841;DHT22;37888;53.246;6.658;2024-01-30T02:33:20;4.40;99.90
51841;DHT22;37888;53.246;6.658;2024-01-30T02:35:47;4.30;99.90
51841;DHT22;37888;53.246;6.658;2024-01-30T02:38:15;4.30;99.90
51841;DHT22;37888;53.246;6.658;2024-01-30T02:40:42;4.80;99.90
51841;DHT22;37888;53.246;6.658;2024-01-30T02:43:08;4.40;99.90
51841;DHT22;37888;53.246;6.658;2024-01-30T02:45:34;4.40;99.90
51841;DHT22;37888;53.246;6.658;2024-01-30T02:47:59;4.30;99.90
51841;DHT22;37888;53.246;6.658;2024-01-30T02:50:25;4.50;99.90
51841;DHT22;37888;53.246;6.658;2024-01-30T02:52:51;4.50;99.90
51841;DHT22;37888;53.246;6.658;2024-01-30T02:55:17;4.70;99.90
51841;DHT22;37888;53.246;6.658;2024-01-30T02:57:45;4.60;99.90
51841;DHT22;37888;53.246;6.658;2024-01-30T03:00:11;4.60;99.90
51841;DHT22;37888;53.246;6.658;2024-01-30T03:02:37;4.50;99.90
51841;DHT22;37888;53.246;6.658;2024-01-30T03:05:06;4.60;99.90
51841;DHT22;37888;53.246;6.658;2024-01-30T03:07:33;4.50;99.90
51841;DHT22;37888;53.246;6.658;2024-01-30T03:09:59;4.70;99.90
51841;DHT22;37888;53.246;6.658;2024-01-30T03:12:25;4.70;99.90
51841;DHT22;37888;53.246;6.658;2024-01-30T03:14:50;4.60;99.90
51841;DHT22;37888;53.246;6.658;2024-01-30T03:17:16;4.70;99.90
51841;DHT22;37888;53.246;6.658;2024-01-30T03:19:42;4.70;99.90
51841;DHT22;37888;53.246;6.658;2024-01-30T03:22:07;4.80;99.90
51841;DHT22;37888;53.246;6.658;2024-01-30T03:24:33;5.00;99.90
51841;DHT22;37888;53.246;6.658;2024-01-30T03:26:59;4.90;99.90
51841;DHT22;37888;53.246;6.658;2024-01-30T03:29:25;4.90;99.90
51841;DHT22;37888;53.246;6.658;2024-01-30T03:31:50;4.80;99.90
51841;DHT22;37888;53.246;6.658;2024-01-30T03:34:16;5.00;99.90
51841;DHT22;37888;53.246;6.658;2024-01-30T03:36:42;5.00;99.90
51841;DHT22;37888;53.246;6.658;2024-01-30T03:39:07;4.90;99.90
51841;DHT22;37888;53.246;6.658;2024-01-30T03:41:33;4.80;99.90
51841;DHT22;37888;53.246;6.658;2024-01-30T03:43:59;5.00;99.90
51841;DHT22;37888;53.246;6.658;2024-01-30T03:46:24;4.90;99.90
51841;DHT22;37888;53.246;6.658;2024-01-30T03:48:50;4.80;99.90
51841;DHT22;37888;53.246;6.658;2024-01-30T03:51:16;4.90;99.90
51841;DHT22;37888;53.246;6.658;2024-01-30T03:53:42;4.90;99.90
51841;DHT22;37888;53.246;6.658;2024-01-30T03:56:09;4.80;99.90
51841;DHT22;37888;53.246;6.658;2024-01-30T03:58:35;5.20;99.90
51841;DHT22;37888;53.246;6.658;2024-01-30T04:01:00;5.00;99.90
51841;DHT22;37888;53.246;6.658;2024-01-30T04:03:26;5.00;99.90
51841;DHT22;37888;53.246;6.658;2024-01-30T04:05:52;5.10;99.90
51841;DHT22;37888;53.246;6.658;2024-01-30T04:08:18;5.00;99.90
51841;DHT22;37888;53.246;6.658;2024-01-30T04:10:44;5.10;99.90
51841;DHT22;37888;53.246;6.658;2024-01-30T04:13:10;5.10;99.90
51841;DHT22;37888;53.246;6.658;2024-01-30T04:15:36;5.20;99.90
51841;DHT22;37888;53.246;6.658;2024-01-30T04:18:01;5.30;99.90
51841;DHT22;37888;53.246;6.658;2024-01-30T04:20:27;5.30;99.90
51841;DHT22;37888;53.246;6.658;2024-01-30T04:22:53;5.30;99.90
51841;DHT22;37888;53.246;6.658;2024-01-30T04:27:45;5.30;99.90
51841;DHT22;37888;53.246;6.658;2024-01-30T04:30:11;5.40;99.90
51841;DHT22;37888;53.246;6.658;2024-01-30T04:32:37;5.40;99.90
51841;DHT22;37888;53.246;6.658;2024-01-30T04:35:03;5.50;99.90
51841;DHT22;37888;53.246;6.658;2024-01-30T04:37:29;5.40;99.90
51841;DHT22;37888;53.246;6.658;2024-01-30T04:39:55;5.60;99.90
51841;DHT22;37888;53.246;6.658;2024-01-30T04:42:20;5.70;99.90
51841;DHT22;37888;53.246;6.658;2024-01-30T04:44:46;5.60;99.90
51841;DHT22;37888;53.246;6.658;2024-01-30T04:47:13;4.40;99.90
51841;DHT22;37888;53.246;6.658;2024-01-30T04:49:39;5.70;99.90
51841;DHT22;37888;53.246;6.658;2024-01-30T04:52:08;5.70;99.90
51841;DHT22;37888;53.246;6.658;2024-01-30T04:59:31;6.00;99.90
51841;DHT22;37888;53.246;6.658;2024-01-30T05:01:57;6.00;99.90
51841;DHT22;37888;53.246;6.658;2024-01-30T05:04:23;5.90;99.90
51841;DHT22;37888;53.246;6.658;2024-01-30T05:06:49;6.00;99.90
51841;DHT22;37888;53.246;6.658;2024-01-30T05:09:14;6.00;99.90
51841;DHT22;37888;53.246;6.658;2024-01-30T05:11:41;6.00;99.90
51841;DHT22;37888;53.246;6.658;2024-01-30T05:14:07;5.90;99.90
51841;DHT22;37888;53.246;6.658;2024-01-30T05:16:34;6.10;99.90
51841;DHT22;37888;53.246;6.658;2024-01-30T05:19:00;6.00;99.90
51841;DHT22;37888;53.246;6.658;2024-01-30T05:21:26;6.10;99.90
51841;DHT22;37888;53.246;6.658;2024-01-30T05:23:52;6.20;99.90
51841;DHT22;37888;53.246;6.658;2024-01-30T05:26:17;6.10;99.90
51841;DHT22;37888;53.246;6.658;2024-01-30T05:28:44;6.10;99.90
51841;DHT22;37888;53.246;6.658;2024-01-30T05:31:12;6.10;99.90
51841;DHT22;37888;53.246;6.658;2024-01-30T05:33:38;6.20;99.90
51841;DHT22;37888;53.246;6.658;2024-01-30T05:36:04;6.20;99.90
51841;DHT22;37888;53.246;6.658;2024-01-30T05:38:29;6.30;99.90
51841;DHT22;37888;53.246;6.658;2024-01-30T05:40:58;6.20;99.90
51841;DHT22;37888;53.246;6.658;2024-01-30T05:43:24;6.20;99.90
51841;DHT22;37888;53.246;6.658;2024-01-30T05:45:50;6.40;99.90
51841;DHT22;37888;53.246;6.658;2024-01-30T05:48:16;6.30;99.90
51841;DHT22;37888;53.246;6.658;2024-01-30T05:50:42;6.30;99.90
51841;DHT22;37888;53.246;6.658;2024-01-30T05:53:07;6.40;99.90
51841;DHT22;37888;53.246;6.658;2024-01-30T05:57:59;6.30;99.90
51841;DHT22;37888;53.246;6.658;2024-01-30T06:00:25;6.40;99.90
51841;DHT22;37888;53.246;6.658;2024-01-30T06:02:50;6.40;99.90
51841;DHT22;37888;53.246;6.658;2024-01-30T06:05:16;6.30;99.90
51841;DHT22;37888;53.246;6.658;2024-01-30T06:07:42;6.40;99.90
51841;DHT22;37888;53.246;6.658;2024-01-30T06:10:08;6.30;99.90
51841;DHT22;37888;53.246;6.658;2024-01-30T06:12:34;6.50;99.90
51841;DHT22;37888;53.246;6.658;2024-01-30T06:15:01;6.50;99.90
51841;DHT22;37888;53.246;6.658;2024-01-30T06:17:26;6.40;99.90
51841;DHT22;37888;53.246;6.658;2024-01-30T06:19:52;6.50;99.90
51841;DHT22;37888;53.246;6.658;2024-01-30T06:22:18;6.50;99.90
51841;DHT22;37888;53.246;6.658;2024-01-30T06:24:43;6.40;99.90
51841;DHT22;37888;53.246;6.658;2024-01-30T06:27:18;6.50;99.90
51841;DHT22;37888;53.246;6.658;2024-01-30T06:29:44;6.50;99.90
51841;DHT22;37888;53.246;6.658;2024-01-30T06:32:09;6.50;99.90
51841;DHT22;37888;53.246;6.658;2024-01-30T06:34:35;6.50;99.90
51841;DHT22;37888;53.246;6.658;2024-01-30T06:37:01;6.60;99.90
51841;DHT22;37888;53.246;6.658;2024-01-30T06:39:27;6.60;99.90
51841;DHT22;37888;53.246;6.658;2024-01-30T06:41:52;6.70;99.90
51841;DHT22;37888;53.246;6.658;2024-01-30T06:44:18;6.50;99.90
51841;DHT22;37888;53.246;6.658;2024-01-30T06:46:44;6.60;99.90
51841;DHT22;37888;53.246;6.658;2024-01-30T06:49:10;6.50;99.90
51841;DHT22;37888;53.246;6.658;2024-01-30T06:51:35;6.60;99.90
51841;DHT22;37888;53.246;6.658;2024-01-30T06:54:01;6.60;99.90
51841;DHT22;37888;53.246;6.658;2024-01-30T06:56:27;6.60;99.90
51841;DHT22;37888;53.246;6.658;2024-01-30T06:58:53;6.60;99.90
51841;DHT22;37888;53.246;6.658;2024-01-30T07:01:19;6.60;99.90
51841;DHT22;37888;53.246;6.658;2024-01-30T07:03:44;6.60;99.90
51841;DHT22;37888;53.246;6.658;2024-01-30T07:06:10;6.80;99.90
51841;DHT22;37888;53.246;6.658;2024-01-30T07:08:39;6.70;99.90
51841;DHT22;37888;53.246;6.658;2024-01-30T07:11:05;6.70;99.90
51841;DHT22;37888;53.246;6.658;2024-01-30T07:13:32;6.70;99.90
51841;DHT22;37888;53.246;6.658;2024-01-30T07:15:58;6.70;99.90
51841;DHT22;37888;53.246;6.658;2024-01-30T07:18:24;6.70;99.90
51841;DHT22;37888;53.246;6.658;2024-01-30T07:20:49;6.80;99.90
51841;DHT22;37888;53.246;6.658;2024-01-30T07:23:16;6.70;99.90
51841;DHT22;37888;53.246;6.658;2024-01-30T07:25:43;6.90;99.90
51841;DHT22;37888;53.246;6.658;2024-01-30T07:28:09;6.90;99.90
51841;DHT22;37888;53.246;6.658;2024-01-30T07:30:36;6.90;99.90
51841;DHT22;37888;53.246;6.658;2024-01-30T07:33:02;6.80;99.90
51841;DHT22;37888;53.246;6.658;2024-01-30T08:38:00;7.40;99.90
51841;DHT22;37888;53.246;6.658;2024-01-30T08:40:26;7.40;99.90
51841;DHT22;37888;53.246;6.658;2024-01-30T08:42:52;7.40;99.90
51841;DHT22;37888;53.246;6.658;2024-01-30T08:45:17;7.30;99.90
51841;DHT22;37888;53.246;6.658;2024-01-30T08:47:44;7.60;99.90
51841;DHT22;37888;53.246;6.658;2024-01-30T08:50:10;7.60;99.90
51841;DHT22;37888;53.246;6.658;2024-01-30T08:52:36;7.60;99.90
51841;DHT22;37888;53.246;6.658;2024-01-30T08:57:28;7.80;99.90
51841;DHT22;37888;53.246;6.658;2024-01-30T08:59:54;7.90;99.90
51841;DHT22;37888;53.246;6.658;2024-01-30T09:02:20;8.00;99.90
51841;DHT22;37888;53.246;6.658;2024-01-30T09:04:46;8.10;99.90
51841;DHT22;37888;53.246;6.658;2024-01-30T09:07:12;8.00;99.90
51841;DHT22;37888;53.246;6.658;2024-01-30T09:09:40;8.20;99.90
51841;DHT22;37888;53.246;6.658;2024-01-30T09:12:09;8.30;99.90
51841;DHT22;37888;53.246;6.658;2024-01-30T09:14:39;8.20;99.90
51841;DHT22;37888;53.246;6.658;2024-01-30T09:17:06;8.30;99.90
51841;DHT22;37888;53.246;6.658;2024-01-30T09:19:32;8.40;99.90
51841;DHT22;37888;53.246;6.658;2024-01-30T09:21:58;8.40;99.90
51841;DHT22;37888;53.246;6.658;2024-01-30T09:24:24;8.40;99.90
51841;DHT22;37888;53.246;6.658;2024-01-30T09:26:50;8.40;99.90
51841;DHT22;37888;53.246;6.658;2024-01-30T09:29:16;8.50;99.90
51841;DHT22;37888;53.246;6.658;2024-01-30T09:31:45;8.50;99.90
51841;DHT22;37888;53.246;6.658;2024-01-30T09:34:11;8.50;99.90
51841;DHT22;37888;53.246;6.658;2024-01-30T09:36:37;8.60;99.90
51841;DHT22;37888;53.246;6.658;2024-01-30T09:39:03;8.70;99.90
51841;DHT22;37888;53.246;6.658;2024-01-30T09:41:32;8.80;99.90
51841;DHT22;37888;53.246;6.658;2024-01-30T09:43:59;8.90;99.90
51841;DHT22;37888;53.246;6.658;2024-01-30T09:46:28;9.00;99.90
51841;DHT22;37888;53.246;6.658;2024-01-30T09:48:55;9.10;99.90
51841;DHT22;37888;53.246;6.658;2024-01-30T09:51:23;9.10;99.90
51841;DHT22;37888;53.246;6.658;2024-01-30T09:53:49;9.10;99.90
51841;DHT22;37888;53.246;6.658;2024-01-30T09:56:16;9.30;99.90
51841;DHT22;37888;53.246;6.658;2024-01-30T09:58:42;9.40;99.90
51841;DHT22;37888;53.246;6.658;2024-01-30T10:01:08;9.40;99.90
51841;DHT22;37888;53.246;6.658;2024-01-30T10:03:35;9.30;99.90
51841;DHT22;37888;53.246;6.658;2024-01-30T10:06:01;9.50;99.90
51841;DHT22;37888;53.246;6.658;2024-01-30T10:08:29;9.40;99.90
51841;DHT22;37888;53.246;6.658;2024-01-30T10:10:55;9.40;99.90
51841;DHT22;37888;53.246;6.658;2024-01-30T10:13:20;9.50;99.90
51841;DHT22;37888;53.246;6.658;2024-01-30T10:15:48;9.40;99.90
51841;DHT22;37888;53.246;6.658;2024-01-30T10:18:15;9.50;99.90
51841;DHT22;37888;53.246;6.658;2024-01-30T10:20:41;9.50;99.90
51841;DHT22;37888;53.246;6.658;2024-01-30T10:23:06;9.50;99.90
51841;DHT22;37888;53.246;6.658;2024-01-30T10:25:33;9.50;99.90
51841;DHT22;37888;53.246;6.658;2024-01-30T10:27:59;9.60;99.90
51841;DHT22;37888;53.246;6.658;2024-01-30T10:30:26;9.70;99.90
51841;DHT22;37888;53.246;6.658;2024-01-30T10:32:52;9.70;99.90
51841;DHT22;37888;53.246;6.658;2024-01-30T10:35:18;9.70;99.90
51841;DHT22;37888;53.246;6.658;2024-01-30T10:37:47;9.80;99.90
51841;DHT22;37888;53.246;6.658;2024-01-30T10:40:13;9.80;99.90
51841;DHT22;37888;53.246;6.658;2024-01-30T10:42:42;9.80;99.90
51841;DHT22;37888;53.246;6.658;2024-01-30T10:45:10;9.80;99.90
51841;DHT22;37888;53.246;6.658;2024-01-30T10:47:49;9.80;99.90
51841;DHT22;37888;53.246;6.658;2024-01-30T10:50:15;9.80;99.90
51841;DHT22;37888;53.246;6.658;2024-01-30T10:52:42;9.90;99.90
51841;DHT22;37888;53.246;6.658;2024-01-30T10:55:10;9.90;99.90
51841;DHT22;37888;53.246;6.658;2024-01-30T10:57:37;9.80;99.90
51841;DHT22;37888;53.246;6.658;2024-01-30T11:00:11;9.90;99.90
51841;DHT22;37888;53.246;6.658;2024-01-30T11:02:43;9.80;99.90
51841;DHT22;37888;53.246;6.658;2024-01-30T11:05:10;9.80;99.90
51841;DHT22;37888;53.246;6.658;2024-01-30T11:07:36;9.90;99.90
51841;DHT22;37888;53.246;6.658;2024-01-30T11:10:04;9.90;99.90
51841;DHT22;37888;53.246;6.658;2024-01-30T11:12:39;10.00;99.90
51841;DHT22;37888;53.246;6.658;2024-01-30T11:15:10;10.00;99.90
51841;DHT22;37888;53.246;6.658;2024-01-30T11:20:27;9.90;99.90
51841;DHT22;37888;53.246;6.658;2024-01-30T11:22:56;10.00;99.90
51841;DHT22;37888;53.246;6.658;2024-01-30T11:25:23;9.90;99.90
51841;DHT22;37888;53.246;6.658;2024-01-30T11:27:53;9.90;99.90
51841;DHT22;37888;53.246;6.658;2024-01-30T11:30:31;9.90;99.90
51841;DHT22;37888;53.246;6.658;2024-01-30T11:33:11;10.00;99.90
51841;DHT22;37888;53.246;6.658;2024-01-30T11:35:42;10.00;99.90
51841;DHT22;37888;53.246;6.658;2024-01-30T11:38:09;10.00;99.90
51841;DHT22;37888;53.246;6.658;2024-01-30T11:40:37;9.90;99.90
51841;DHT22;37888;53.246;6.658;2024-01-30T11:43:05;9.90;99.90
51841;DHT22;37888;53.246;6.658;2024-01-30T11:45:32;10.00;99.90
51841;DHT22;37888;53.246;6.658;2024-01-30T11:47:59;9.90;99.90
51841;DHT22;37888;53.246;6.658;2024-01-30T11:50:30;9.90;99.90
51841;DHT22;37888;53.246;6.658;2024-01-30T11:52:56;9.80;99.90
51841;DHT22;37888;53.246;6.658;2024-01-30T11:55:24;9.90;99.90
51841;DHT22;37888;53.246;6.658;2024-01-30T11:57:54;10.00;99.90
51841;DHT22;37888;53.246;6.658;2024-01-30T12:00:20;9.90;99.90
51841;DHT22;37888;53.246;6.658;2024-01-30T12:02:54;9.90;99.90
51841;DHT22;37888;53.246;6.658;2024-01-30T12:05:27;10.00;99.90
51841;DHT22;37888;53.246;6.658;2024-01-30T12:07:53;10.00;99.90
51841;DHT22;37888;53.246;6.658;2024-01-30T12:10:21;10.00;99.90
51841;DHT22;37888;53.246;6.658;2024-01-30T12:12:49;10.00;99.90
51841;DHT22;37888;53.246;6.658;2024-01-30T12:15:16;10.00;99.90
51841;DHT22;37888;53.246;6.658;2024-01-30T12:17:41;9.90;99.90
51841;DHT22;37888;53.246;6.658;2024-01-30T12:20:09;9.90;99.90
51841;DHT22;37888;53.246;6.658;2024-01-30T12:22:37;9.90;99.90
51841;DHT22;37888;53.246;6.658;2024-01-30T12:25:10;9.80;99.90
51841;DHT22;37888;53.246;6.658;2024-01-30T12:27:42;9.70;99.90
51841;DHT22;37888;53.246;6.658;2024-01-30T12:30:09;9.70;99.90
51841;DHT22;37888;53.246;6.658;2024-01-30T12:32:36;9.70;99.90
51841;DHT22;37888;53.246;6.658;2024-01-30T12:35:03;9.70;99.90
51841;DHT22;37888;53.246;6.658;2024-01-30T12:37:30;9.70;99.90
51841;DHT22;37888;53.246;6.658;2024-01-30T12:39:56;9.70;99.90
51841;DHT22;37888;53.246;6.658;2024-01-30T12:42:23;9.80;99.90
51841;DHT22;37888;53.246;6.658;2024-01-30T12:44:49;9.70;99.90
51841;DHT22;37888;53.246;6.658;2024-01-30T12:47:15;9.70;99.90
51841;DHT22;37888;53.246;6.658;2024-01-30T12:49:44;9.70;99.90
51841;DHT22;37888;53.246;6.658;2024-01-30T12:52:11;9.70;99.90
51841;DHT22;37888;53.246;6.658;2024-01-30T12:54:40;9.70;99.90
51841;DHT22;37888;53.246;6.658;2024-01-30T12:57:06;9.70;99.90
51841;DHT22;37888;53.246;6.658;2024-01-30T12:59:32;9.60;99.90
51841;DHT22;37888;53.246;6.658;2024-01-30T13:02:00;9.60;99.90
51841;DHT22;37888;53.246;6.658;2024-01-30T13:04:26;9.60;99.90
51841;DHT22;37888;53.246;6.658;2024-01-30T13:06:53;9.60;99.90
51841;DHT22;37888;53.246;6.658;2024-01-30T13:09:19;9.70;99.90
51841;DHT22;37888;53.246;6.658;2024-01-30T13:11:45;9.60;99.90
51841;DHT22;37888;53.246;6.658;2024-01-30T13:14:11;9.60;99.90
51841;DHT22;37888;53.246;6.658;2024-01-30T13:16:37;9.80;99.90
51841;DHT22;37888;53.246;6.658;2024-01-30T13:19:04;9.70;99.90
51841;DHT22;37888;53.246;6.658;2024-01-30T13:21:30;9.80;99.90
51841;DHT22;37888;53.246;6.658;2024-01-30T13:23:55;9.80;99.90
51841;DHT22;37888;53.246;6.658;2024-01-30T13:26:21;9.90;99.90
51841;DHT22;37888;53.246;6.658;2024-01-30T13:28:47;9.80;99.90
51841;DHT22;37888;53.246;6.658;2024-01-30T13:31:14;9.80;99.90
51841;DHT22;37888;53.246;6.658;2024-01-30T13:33:41;9.80;99.90
51841;DHT22;37888;53.246;6.658;2024-01-30T13:36:08;9.70;99.90
51841;DHT22;37888;53.246;6.658;2024-01-30T13:38:34;9.60;99.90
51841;DHT22;37888;53.246;6.658;2024-01-30T13:41:00;9.60;99.90
51841;DHT22;37888;53.246;6.658;2024-01-30T13:43:26;9.60;99.90
51841;DHT22;37888;53.246;6.658;2024-01-30T13:45:52;9.60;99.90
51841;DHT22;37888;53.246;6.658;2024-01-30T13:48:18;9.60;99.90
51841;DHT22;37888;53.246;6.658;2024-01-30T13:50:44;9.60;99.90
51841;DHT22;37888;53.246;6.658;2024-01-30T13:53:10;9.50;99.90
51841;DHT22;37888;53.246;6.658;2024-01-30T13:55:36;9.50;99.90
51841;DHT22;37888;53.246;6.658;2024-01-30T13:58:01;9.50;99.90
51841;DHT22;37888;53.246;6.658;2024-01-30T14:00:27;9.50;99.90
51841;DHT22;37888;53.246;6.658;2024-01-30T14:02:53;9.50;99.90
51841;DHT22;37888;53.246;6.658;2024-01-30T14:05:24;9.40;99.90
51841;DHT22;37888;53.246;6.658;2024-01-30T14:07:50;9.40;99.90
51841;DHT22;37888;53.246;6.658;2024-01-30T14:10:16;9.40;99.90
51841;DHT22;37888;53.246;6.658;2024-01-30T14:12:43;9.40;99.90
51841;DHT22;37888;53.246;6.658;2024-01-30T14:15:10;9.30;99.90
51841;DHT22;37888;53.246;6.658;2024-01-30T14:17:37;9.40;99.90
51841;DHT22;37888;53.246;6.658;2024-01-30T14:20:03;9.40;99.90
51841;DHT22;37888;53.246;6.658;2024-01-30T14:22:33;9.40;99.90
51841;DHT22;37888;53.246;6.658;2024-01-30T14:25:00;9.30;99.90
51841;DHT22;37888;53.246;6.658;2024-01-30T14:27:28;9.40;99.90
51841;DHT22;37888;53.246;6.658;2024-01-30T14:29:56;9.30;99.90
51841;DHT22;37888;53.246;6.658;2024-01-30T14:32:23;9.30;99.90
51841;DHT22;37888;53.246;6.658;2024-01-30T14:34:50;9.30;99.90
51841;DHT22;37888;53.246;6.658;2024-01-30T14:37:16;9.20;99.90
51841;DHT22;37888;53.246;6.658;2024-01-30T14:39:42;9.20;99.90
51841;DHT22;37888;53.246;6.658;2024-01-30T14:42:08;9.20;99.90
51841;DHT22;37888;53.246;6.658;2024-01-30T14:44:35;9.10;99.90
51841;DHT22;37888;53.246;6.658;2024-01-30T14:47:01;9.10;99.90
51841;DHT22;37888;53.246;6.658;2024-01-30T14:49:28;9.00;99.90
51841;DHT22;37888;53.246;6.658;2024-01-30T14:51:54;9.00;99.90
51841;DHT22;37888;53.246;6.658;2024-01-30T14:54:20;9.00;99.90
51841;DHT22;37888;53.246;6.658;2024-01-30T14:56:46;8.90;99.90
51841;DHT22;37888;53.246;6.658;2024-01-30T14:59:12;8.90;99.90
51841;DHT22;37888;53.246;6.658;2024-01-30T15:01:38;8.90;99.90
51841;DHT22;37888;53.246;6.658;2024-01-30T15:04:04;8.80;99.90
51841;DHT22;37888;53.246;6.658;2024-01-30T15:06:30;8.80;99.90
51841;DHT22;37888;53.246;6.658;2024-01-30T15:08:56;8.70;99.90
51841;DHT22;37888;53.246;6.658;2024-01-30T15:11:22;8.60;99.90
51841;DHT22;37888;53.246;6.658;2024-01-30T15:13:47;8.50;99.90
51841;DHT22;37888;53.246;6.658;2024-01-30T15:16:14;8.50;99.90
51841;DHT22;37888;53.246;6.658;2024-01-30T15:18:40;8.50;99.90
51841;DHT22;37888;53.246;6.658;2024-01-30T15:21:05;8.50;99.90
51841;DHT22;37888;53.246;6.658;2024-01-30T15:23:31;8.40;99.90
51841;DHT22;37888;53.246;6.658;2024-01-30T15:25:57;8.40;99.90
51841;DHT22;37888;53.246;6.658;2024-01-30T15:28:34;8.50;99.90
51841;DHT22;37888;53.246;6.658;2024-01-30T15:31:02;8.50;99.90
51841;DHT22;37888;53.246;6.658;2024-01-30T15:33:28;8.40;99.90
51841;DHT22;37888;53.246;6.658;2024-01-30T15:35:53;8.40;99.90
51841;DHT22;37888;53.246;6.658;2024-01-30T15:38:20;8.40;99.90
51841;DHT22;37888;53.246;6.658;2024-01-30T15:40:47;8.40;99.90
51841;DHT22;37888;53.246;6.658;2024-01-30T15:43:12;8.50;99.90
51841;DHT22;37888;53.246;6.658;2024-01-30T15:45:38;8.30;99.90
51841;DHT22;37888;53.246;6.658;2024-01-30T15:48:04;8.40;99.90
51841;DHT22;37888;53.246;6.658;2024-01-30T15:50:31;8.40;99.90
51841;DHT22;37888;53.246;6.658;2024-01-30T15:52:57;8.40;99.90
51841;DHT22;37888;53.246;6.658;2024-01-30T15:55:23;8.40;99.90
51841;DHT22;37888;53.246;6.658;2024-01-30T15:57:49;8.30;99.90
51841;DHT22;37888;53.246;6.658;2024-01-30T16:00:15;8.20;99.90
51841;DHT22;37888;53.246;6.658;2024-01-30T16:02:41;8.30;99.90
51841;DHT22;37888;53.246;6.658;2024-01-30T16:05:07;8.30;99.90
51841;DHT22;37888;53.246;6.658;2024-01-30T16:07:34;8.30;99.90
51841;DHT22;37888;53.246;6.658;2024-01-30T16:10:00;8.20;99.90
51841;DHT22;37888;53.246;6.658;2024-01-30T16:12:27;8.30;99.90
51841;DHT22;37888;53.246;6.658;2024-01-30T16:14:52;8.10;99.90
51841;DHT22;37888;53.246;6.658;2024-01-30T16:17:18;8.10;99.90
51841;DHT22;37888;53.246;6.658;2024-01-30T16:19:44;8.20;99.90
51841;DHT22;37888;53.246;6.658;2024-01-30T16:22:10;8.10;99.90
51841;DHT22;37888;53.246;6.658;2024-01-30T16:24:36;8.10;99.90
51841;DHT22;37888;53.246;6.658;2024-01-30T16:27:02;8.20;99.90
51841;DHT22;37888;53.246;6.658;2024-01-30T16:29:29;8.10;99.90
51841;DHT22;37888;53.246;6.658;2024-01-30T16:31:55;8.00;99.90
51841;DHT22;37888;53.246;6.658;2024-01-30T16:34:21;8.00;99.90
51841;DHT22;37888;53.246;6.658;2024-01-30T16:36:47;8.10;99.90
51841;DHT22;37888;53.246;6.658;2024-01-30T16:39:13;8.00;99.90
51841;DHT22;37888;53.246;6.658;2024-01-30T16:41:40;8.10;99.90
51841;DHT22;37888;53.246;6.658;2024-01-30T16:44:07;7.90;99.90
51841;DHT22;37888;53.246;6.658;2024-01-30T16:46:33;7.90;99.90
51841;DHT22;37888;53.246;6.658;2024-01-30T16:49:01;7.80;99.90
51841;DHT22;37888;53.246;6.658;2024-01-30T16:51:27;7.90;99.90
51841;DHT22;37888;53.246;6.658;2024-01-30T16:53:54;7.90;99.90
51841;DHT22;37888;53.246;6.658;2024-01-30T16:56:21;7.80;99.90
51841;DHT22;37888;53.246;6.658;2024-01-30T16:58:46;7.80;99.90